sensor_id;sensor_type;location;lat;lon;timestamp;temperature;humidity
52285;DHT22;38238;53.304;6.606;2023-01-29T00:01:08;3.90;99.90
52285;DHT22;38238;53.304;6.606;2023-01-29T00:03:34;3.80;99.90
52285;DHT22;38238;53.304;6.606;2023-01-29T00:06:04;4.40;99.90
52285;DHT22;38238;53.304;6.606;2023-01-29T00:08:35;3.80;99.90
52285;DHT22;38238;53.304;6.606;2023-01-29T00:11:02;4.10;99.90
52285;DHT22;38238;53.304;6.606;2023-01-29T00:13:28;3.80;99.90
52285;DHT22;38238;53.304;6.606;2023-01-29T00:15:58;4.60;99.90
52285;DHT22;38238;53.304;6.606;2023-01-29T00:18:24;3.90;99.90
52285;DHT22;38238;53.304;6.606;2023-01-29T00:20:50;3.80;99.90
52285;DHT22;38238;53.304;6.606;2023-01-29T00:23:16;4.70;99.90
52285;DHT22;38238;53.304;6.606;2023-01-29T00:25:42;3.90;99.90
52285;DHT22;38238;53.304;6.606;2023-01-29T00:28:08;3.70;99.90
52285;DHT22;38238;53.304;6.606;2023-01-29T00:30:35;4.30;99.90
52285;DHT22;38238;53.304;6.606;2023-01-29T00:33:01;3.70;99.90
52285;DHT22;38238;53.304;6.606;2023-01-29T00:35:27;4.20;99.90
52285;DHT22;38238;53.304;6.606;2023-01-29T00:37:54;3.80;99.90
52285;DHT22;38238;53.304;6.606;2023-01-29T00:40:20;3.80;99.90
52285;DHT22;38238;53.304;6.606;2023-01-29T00:42:47;4.00;99.90
52285;DHT22;38238;53.304;6.606;2023-01-29T00:45:32;4.20;99.90
52285;DHT22;38238;53.304;6.606;2023-01-29T00:47:58;4.70;99.90
52285;DHT22;38238;53.304;6.606;2023-01-29T00:50:23;4.30;99.90
52285;DHT22;38238;53.304;6.606;2023-01-29T00:52:49;3.70;99.90
52285;DHT22;38238;53.304;6.606;2023-01-29T00:55:17;3.90;99.90
52285;DHT22;38238;53.304;6.606;2023-01-29T00:57:43;3.70;99.90
52285;DHT22;38238;53.304;6.606;2023-01-29T01:00:11;3.70;99.90
52285;DHT22;38238;53.304;6.606;2023-01-29T01:02:37;3.80;99.90
52285;DHT22;38238;53.304;6.606;2023-01-29T01:05:22;3.70;99.90
52285;DHT22;38238;53.304;6.606;2023-01-29T01:07:50;3.80;99.90
52285;DHT22;38238;53.304;6.606;2023-01-29T01:10:19;3.80;99.90
52285;DHT22;38238;53.304;6.606;2023-01-29T01:12:57;3.70;99.90
52285;DHT22;38238;53.304;6.606;2023-01-29T01:15:35;3.80;99.90
52285;DHT22;38238;53.304;6.606;2023-01-29T01:18:02;3.70;99.90
52285;DHT22;38238;53.304;6.606;2023-01-29T01:20:29;3.80;99.90
52285;DHT22;38238;53.304;6.606;2023-01-29T01:22:56;4.60;99.90
52285;DHT22;38238;53.304;6.606;2023-01-29T01:25:23;4.20;99.90
52285;DHT22;38238;53.304;6.606;2023-01-29T01:27:54;3.70;99.90
52285;DHT22;38238;53.304;6.606;2023-01-29T01:30:20;4.10;99.90
52285;DHT22;38238;53.304;6.606;2023-01-29T01:32:46;3.80;99.90
52285;DHT22;38238;53.304;6.606;2023-01-29T01:35:12;3.80;99.90
52285;DHT22;38238;53.304;6.606;2023-01-29T01:37:39;4.20;99.90
52285;DHT22;38238;53.304;6.606;2023-01-29T01:40:09;3.80;99.90
52285;DHT22;38238;53.304;6.606;2023-01-29T01:42:39;3.80;99.90
52285;DHT22;38238;53.304;6.606;2023-01-29T01:45:13;3.80;99.90
52285;DHT22;38238;53.304;6.606;2023-01-29T01:47:43;3.80;99.90
52285;DHT22;38238;53.304;6.606;2023-01-29T01:52:43;4.70;99.90
52285;DHT22;38238;53.304;6.606;2023-01-29T01:55:11;3.80;99.90
52285;DHT22;38238;53.304;6.606;2023-01-29T01:57:38;4.20;99.90
52285;DHT22;38238;53.304;6.606;2023-01-29T02:00:12;3.80;99.90
52285;DHT22;38238;53.304;6.606;2023-01-29T02:02:41;3.80;99.90
52285;DHT22;38238;53.304;6.606;2023-01-29T02:05:26;3.90;99.90
52285;DHT22;38238;53.304;6.606;2023-01-29T02:08:11;4.90;99.90
52285;DHT22;38238;53.304;6.606;2023-01-29T02:10:57;3.80;99.90
52285;DHT22;38238;53.304;6.606;2023-01-29T02:13:23;3.80;99.90
52285;DHT22;38238;53.304;6.606;2023-01-29T02:15:49;4.00;99.90
52285;DHT22;38238;53.304;6.606;2023-01-29T02:18:18;3.80;99.90
52285;DHT22;38238;53.304;6.606;2023-01-29T02:23:54;3.80;99.90
52285;DHT22;38238;53.304;6.606;2023-01-29T02:26:38;5.00;99.90
52285;DHT22;38238;53.304;6.606;2023-01-29T02:29:10;3.80;99.90
52285;DHT22;38238;53.304;6.606;2023-01-29T02:32:11;3.80;99.90
52285;DHT22;38238;53.304;6.606;2023-01-29T02:40:31;3.80;99.90
52285;DHT22;38238;53.304;6.606;2023-01-29T02:46:15;3.80;99.90
52285;DHT22;38238;53.304;6.606;2023-01-29T02:48:51;3.80;99.90
52285;DHT22;38238;53.304;6.606;2023-01-29T02:51:57;3.80;99.90
52285;DHT22;38238;53.304;6.606;2023-01-29T02:54:44;3.80;99.90
52285;DHT22;38238;53.304;6.606;2023-01-29T02:57:22;3.80;99.90
52285;DHT22;38238;53.304;6.606;2023-01-29T02:59:55;4.30;99.90
52285;DHT22;38238;53.304;6.606;2023-01-29T03:02:59;3.80;99.90
52285;DHT22;38238;53.304;6.606;2023-01-29T03:05:31;3.80;99.90
52285;DHT22;38238;53.304;6.606;2023-01-29T03:08:03;3.80;99.90
52285;DHT22;38238;53.304;6.606;2023-01-29T03:10:37;3.80;99.90
52285;DHT22;38238;53.304;6.606;2023-01-29T03:13:11;3.80;99.90
52285;DHT22;38238;53.304;6.606;2023-01-29T03:15:43;3.80;99.90
52285;DHT22;38238;53.304;6.606;2023-01-29T03:18:17;4.30;99.90
52285;DHT22;38238;53.304;6.606;2023-01-29T03:20:52;3.80;99.90
52285;DHT22;38238;53.304;6.606;2023-01-29T03:23:24;3.80;99.90
52285;DHT22;38238;53.304;6.606;2023-01-29T03:26:03;3.80;99.90
52285;DHT22;38238;53.304;6.606;2023-01-29T03:28:48;3.90;99.90
52285;DHT22;38238;53.304;6.606;2023-01-29T03:31:32;4.30;99.90
52285;DHT22;38238;53.304;6.606;2023-01-29T03:34:27;3.80;99.90
52285;DHT22;38238;53.304;6.606;2023-01-29T03:37:04;3.80;99.90
52285;DHT22;38238;53.304;6.606;2023-01-29T03:39:33;3.80;99.90
52285;DHT22;38238;53.304;6.606;2023-01-29T03:45:14;3.80;99.90
52285;DHT22;38238;53.304;6.606;2023-01-29T03:53:20;3.80;99.90
52285;DHT22;38238;53.304;6.606;2023-01-29T03:56:04;3.80;99.90
52285;DHT22;38238;53.304;6.606;2023-01-29T03:58:44;3.80;99.90
52285;DHT22;38238;53.304;6.606;2023-01-29T04:01:55;3.80;99.90
52285;DHT22;38238;53.304;6.606;2023-01-29T04:04:31;3.80;99.90
52285;DHT22;38238;53.304;6.606;2023-01-29T04:07:13;4.50;99.90
52285;DHT22;38238;53.304;6.606;2023-01-29T04:10:00;3.80;99.90
52285;DHT22;38238;53.304;6.606;2023-01-29T04:12:28;3.80;99.90
52285;DHT22;38238;53.304;6.606;2023-01-29T04:14:55;3.80;99.90
52285;DHT22;38238;53.304;6.606;2023-01-29T04:17:24;3.90;99.90
52285;DHT22;38238;53.304;6.606;2023-01-29T04:19:52;3.90;99.90
52285;DHT22;38238;53.304;6.606;2023-01-29T04:22:37;3.90;99.90
52285;DHT22;38238;53.304;6.606;2023-01-29T04:25:07;3.80;99.90
52285;DHT22;38238;53.304;6.606;2023-01-29T04:30:04;3.90;99.90
52285;DHT22;38238;53.304;6.606;2023-01-29T04:32:45;4.90;99.90
52285;DHT22;38238;53.304;6.606;2023-01-29T04:43:03;3.90;99.90
52285;DHT22;38238;53.304;6.606;2023-01-29T04:45:54;4.20;99.90
52285;DHT22;38238;53.304;6.606;2023-01-29T04:53:24;3.90;99.90
52285;DHT22;38238;53.304;6.606;2023-01-29T04:58:38;3.80;99.90
52285;DHT22;38238;53.304;6.606;2023-01-29T05:01:05;3.80;99.90
52285;DHT22;38238;53.304;6.606;2023-01-29T05:03:31;3.80;99.90
52285;DHT22;38238;53.304;6.606;2023-01-29T05:05:58;3.80;99.90
52285;DHT22;38238;53.304;6.606;2023-01-29T05:08:25;3.80;99.90
52285;DHT22;38238;53.304;6.606;2023-01-29T05:10:52;3.80;99.90
52285;DHT22;38238;53.304;6.606;2023-01-29T05:13:19;3.80;99.90
52285;DHT22;38238;53.304;6.606;2023-01-29T05:15:47;4.60;99.90
52285;DHT22;38238;53.304;6.606;2023-01-29T05:18:14;4.50;99.90
52285;DHT22;38238;53.304;6.606;2023-01-29T05:20:40;3.80;99.90
52285;DHT22;38238;53.304;6.606;2023-01-29T05:23:20;3.80;99.90
52285;DHT22;38238;53.304;6.606;2023-01-29T05:25:46;3.80;99.90
52285;DHT22;38238;53.304;6.606;2023-01-29T05:28:12;3.90;99.90
52285;DHT22;38238;53.304;6.606;2023-01-29T05:30:45;3.90;99.90
52285;DHT22;38238;53.304;6.606;2023-01-29T05:33:15;3.90;99.90
52285;DHT22;38238;53.304;6.606;2023-01-29T05:35:41;4.80;99.90
52285;DHT22;38238;53.304;6.606;2023-01-29T05:38:07;3.90;99.90
52285;DHT22;38238;53.304;6.606;2023-01-29T05:40:33;4.10;99.90
52285;DHT22;38238;53.304;6.606;2023-01-29T05:42:58;3.90;99.90
52285;DHT22;38238;53.304;6.606;2023-01-29T05:45:24;3.90;99.90
52285;DHT22;38238;53.304;6.606;2023-01-29T05:47:50;3.90;99.90
52285;DHT22;38238;53.304;6.606;2023-01-29T05:50:15;3.90;99.90
52285;DHT22;38238;53.304;6.606;2023-01-29T05:52:41;3.90;99.90
52285;DHT22;38238;53.304;6.606;2023-01-29T05:55:07;3.90;99.90
52285;DHT22;38238;53.304;6.606;2023-01-29T05:57:33;3.90;99.90
52285;DHT22;38238;53.304;6.606;2023-01-29T05:59:59;4.90;99.90
52285;DHT22;38238;53.304;6.606;2023-01-29T06:02:25;3.90;99.90
52285;DHT22;38238;53.304;6.606;2023-01-29T06:04:50;3.90;99.90
52285;DHT22;38238;53.304;6.606;2023-01-29T06:07:17;3.90;99.90
52285;DHT22;38238;53.304;6.606;2023-01-29T06:09:42;4.80;99.90
52285;DHT22;38238;53.304;6.606;2023-01-29T06:12:08;4.50;99.90
52285;DHT22;38238;53.304;6.606;2023-01-29T06:14:34;4.00;99.90
52285;DHT22;38238;53.304;6.606;2023-01-29T06:16:59;4.50;99.90
52285;DHT22;38238;53.304;6.606;2023-01-29T06:19:25;3.90;99.90
52285;DHT22;38238;53.304;6.606;2023-01-29T06:21:50;3.90;99.90
52285;DHT22;38238;53.304;6.606;2023-01-29T06:24:16;3.90;99.90
52285;DHT22;38238;53.304;6.606;2023-01-29T06:26:41;3.90;99.90
52285;DHT22;38238;53.304;6.606;2023-01-29T06:29:07;3.90;99.90
52285;DHT22;38238;53.304;6.606;2023-01-29T06:31:33;4.50;99.90
52285;DHT22;38238;53.304;6.606;2023-01-29T06:33:58;3.90;99.90
52285;DHT22;38238;53.304;6.606;2023-01-29T06:36:24;3.90;99.90
52285;DHT22;38238;53.304;6.606;2023-01-29T06:38:49;3.90;99.90
52285;DHT22;38238;53.304;6.606;2023-01-29T06:41:16;3.90;99.90
52285;DHT22;38238;53.304;6.606;2023-01-29T06:43:42;5.00;99.90
52285;DHT22;38238;53.304;6.606;2023-01-29T06:46:08;4.00;99.90
52285;DHT22;38238;53.304;6.606;2023-01-29T06:48:34;3.90;99.90
52285;DHT22;38238;53.304;6.606;2023-01-29T06:51:03;3.90;99.90
52285;DHT22;38238;53.304;6.606;2023-01-29T06:53:29;4.00;99.90
52285;DHT22;38238;53.304;6.606;2023-01-29T06:55:55;4.00;99.90
52285;DHT22;38238;53.304;6.606;2023-01-29T06:58:20;4.00;99.90
52285;DHT22;38238;53.304;6.606;2023-01-29T07:00:46;4.00;99.90
52285;DHT22;38238;53.304;6.606;2023-01-29T07:03:12;4.00;99.90
52285;DHT22;38238;53.304;6.606;2023-01-29T07:05:38;4.00;99.90
52285;DHT22;38238;53.304;6.606;2023-01-29T07:08:04;4.00;99.90
52285;DHT22;38238;53.304;6.606;2023-01-29T07:10:30;4.00;99.90
52285;DHT22;38238;53.304;6.606;2023-01-29T07:12:57;4.00;99.90
52285;DHT22;38238;53.304;6.606;2023-01-29T07:15:23;4.00;99.90
52285;DHT22;38238;53.304;6.606;2023-01-29T07:17:56;4.00;99.90
52285;DHT22;38238;53.304;6.606;2023-01-29T07:20:22;4.00;99.90
52285;DHT22;38238;53.304;6.606;2023-01-29T07:22:48;4.00;99.90
52285;DHT22;38238;53.304;6.606;2023-01-29T07:25:14;4.00;99.90
52285;DHT22;38238;53.304;6.606;2023-01-29T07:27:39;4.00;99.90
52285;DHT22;38238;53.304;6.606;2023-01-29T07:30:05;4.00;99.90
52285;DHT22;38238;53.304;6.606;2023-01-29T07:32:31;4.00;99.90
52285;DHT22;38238;53.304;6.606;2023-01-29T07:34:56;3.90;99.90
52285;DHT22;38238;53.304;6.606;2023-01-29T07:37:22;3.90;99.90
52285;DHT22;38238;53.304;6.606;2023-01-29T07:39:47;3.90;99.90
52285;DHT22;38238;53.304;6.606;2023-01-29T07:42:13;3.90;99.90
52285;DHT22;38238;53.304;6.606;2023-01-29T07:44:39;4.00;99.90
52285;DHT22;38238;53.304;6.606;2023-01-29T07:47:04;3.90;99.90
52285;DHT22;38238;53.304;6.606;2023-01-29T07:49:30;4.00;99.90
52285;DHT22;38238;53.304;6.606;2023-01-29T07:51:55;4.00;99.90
52285;DHT22;38238;53.304;6.606;2023-01-29T07:54:21;4.00;99.90
52285;DHT22;38238;53.304;6.606;2023-01-29T07:56:47;4.30;99.90
52285;DHT22;38238;53.304;6.606;2023-01-29T07:59:12;4.00;99.90
52285;DHT22;38238;53.304;6.606;2023-01-29T08:01:38;4.00;99.90
52285;DHT22;38238;53.304;6.606;2023-01-29T08:04:03;4.00;99.90
52285;DHT22;38238;53.304;6.606;2023-01-29T08:06:29;4.00;99.90
52285;DHT22;38238;53.304;6.606;2023-01-29T08:08:54;4.00;99.90
52285;DHT22;38238;53.304;6.606;2023-01-29T08:11:21;4.00;99.90
52285;DHT22;38238;53.304;6.606;2023-01-29T08:13:47;4.00;99.90
52285;DHT22;38238;53.304;6.606;2023-01-29T08:16:12;4.00;99.90
52285;DHT22;38238;53.304;6.606;2023-01-29T08:18:38;4.10;99.90
52285;DHT22;38238;53.304;6.606;2023-01-29T08:21:08;4.00;99.90
52285;DHT22;38238;53.304;6.606;2023-01-29T08:23:34;4.00;99.90
52285;DHT22;38238;53.304;6.606;2023-01-29T08:26:01;4.00;99.90
52285;DHT22;38238;53.304;6.606;2023-01-29T08:28:26;4.00;99.90
52285;DHT22;38238;53.304;6.606;2023-01-29T08:30:52;4.20;99.90
52285;DHT22;38238;53.304;6.606;2023-01-29T08:33:17;4.00;99.90
52285;DHT22;38238;53.304;6.606;2023-01-29T08:35:47;3.90;99.90
52285;DHT22;38238;53.304;6.606;2023-01-29T08:38:12;4.00;99.90
52285;DHT22;38238;53.304;6.606;2023-01-29T08:40:38;4.00;99.90
52285;DHT22;38238;53.304;6.606;2023-01-29T08:43:04;3.90;99.90
52285;DHT22;38238;53.304;6.606;2023-01-29T08:45:31;3.90;99.90
52285;DHT22;38238;53.304;6.606;2023-01-29T08:47:57;3.90;99.90
52285;DHT22;38238;53.304;6.606;2023-01-29T08:50:23;3.90;99.90
52285;DHT22;38238;53.304;6.606;2023-01-29T08:52:48;3.90;99.90
52285;DHT22;38238;53.304;6.606;2023-01-29T08:55:14;4.00;99.90
52285;DHT22;38238;53.304;6.606;2023-01-29T08:57:39;4.60;99.90
52285;DHT22;38238;53.304;6.606;2023-01-29T09:00:05;4.10;99.90
52285;DHT22;38238;53.304;6.606;2023-01-29T09:02:31;4.00;99.90
52285;DHT22;38238;53.304;6.606;2023-01-29T09:04:57;4.10;99.90
52285;DHT22;38238;53.304;6.606;2023-01-29T09:07:22;4.10;99.90
52285;DHT22;38238;53.304;6.606;2023-01-29T09:09:48;4.10;99.90
52285;DHT22;38238;53.304;6.606;2023-01-29T09:12:14;4.10;99.90
52285;DHT22;38238;53.304;6.606;2023-01-29T09:14:39;4.90;99.90
52285;DHT22;38238;53.304;6.606;2023-01-29T09:17:05;4.10;99.90
52285;DHT22;38238;53.304;6.606;2023-01-29T09:19:30;4.10;99.90
52285;DHT22;38238;53.304;6.606;2023-01-29T09:21:56;4.10;99.90
52285;DHT22;38238;53.304;6.606;2023-01-29T09:24:22;4.10;99.90
52285;DHT22;38238;53.304;6.606;2023-01-29T09:26:47;4.10;99.90
52285;DHT22;38238;53.304;6.606;2023-01-29T09:29:13;4.10;99.90
52285;DHT22;38238;53.304;6.606;2023-01-29T09:31:38;4.10;99.90
52285;DHT22;38238;53.304;6.606;2023-01-29T09:34:04;4.10;99.90
52285;DHT22;38238;53.304;6.606;2023-01-29T09:36:29;4.20;99.90
52285;DHT22;38238;53.304;6.606;2023-01-29T09:38:55;4.20;99.90
52285;DHT22;38238;53.304;6.606;2023-01-29T09:41:25;4.20;99.90
52285;DHT22;38238;53.304;6.606;2023-01-29T09:44:02;4.30;99.90
52285;DHT22;38238;53.304;6.606;2023-01-29T09:49:00;4.40;99.90
52285;DHT22;38238;53.304;6.606;2023-01-29T09:51:29;4.30;99.90
52285;DHT22;38238;53.304;6.606;2023-01-29T09:54:10;4.40;99.90
52285;DHT22;38238;53.304;6.606;2023-01-29T09:56:38;4.40;99.90
52285;DHT22;38238;53.304;6.606;2023-01-29T09:59:03;4.40;99.90
52285;DHT22;38238;53.304;6.606;2023-01-29T10:01:34;4.30;99.90
52285;DHT22;38238;53.304;6.606;2023-01-29T10:04:19;4.80;99.90
52285;DHT22;38238;53.304;6.606;2023-01-29T10:22:34;4.50;99.90
52285;DHT22;38238;53.304;6.606;2023-01-29T10:25:14;4.50;99.90
52285;DHT22;38238;53.304;6.606;2023-01-29T10:27:41;4.50;99.90
52285;DHT22;38238;53.304;6.606;2023-01-29T10:30:30;4.50;99.90
52285;DHT22;38238;53.304;6.606;2023-01-29T10:32:58;4.40;99.90
52285;DHT22;38238;53.304;6.606;2023-01-29T10:35:31;4.50;99.90
52285;DHT22;38238;53.304;6.606;2023-01-29T10:38:00;4.40;99.90
52285;DHT22;38238;53.304;6.606;2023-01-29T10:42:56;4.40;99.90
52285;DHT22;38238;53.304;6.606;2023-01-29T10:50:54;4.40;99.90
52285;DHT22;38238;53.304;6.606;2023-01-29T10:53:47;4.40;99.90
52285;DHT22;38238;53.304;6.606;2023-01-29T10:58:40;4.40;99.90
52285;DHT22;38238;53.304;6.606;2023-01-29T11:01:11;4.40;99.90
52285;DHT22;38238;53.304;6.606;2023-01-29T11:03:36;4.40;99.90
52285;DHT22;38238;53.304;6.606;2023-01-29T11:06:19;4.90;99.90
52285;DHT22;38238;53.304;6.606;2023-01-29T11:08:48;4.40;99.90
52285;DHT22;38238;53.304;6.606;2023-01-29T11:11:17;4.40;99.90
52285;DHT22;38238;53.304;6.606;2023-01-29T11:13:45;4.40;99.90
52285;DHT22;38238;53.304;6.606;2023-01-29T11:16:11;4.40;99.90
52285;DHT22;38238;53.304;6.606;2023-01-29T11:21:33;4.50;99.90
52285;DHT22;38238;53.304;6.606;2023-01-29T11:24:14;4.50;99.90
52285;DHT22;38238;53.304;6.606;2023-01-29T11:26:42;4.50;99.90
52285;DHT22;38238;53.304;6.606;2023-01-29T11:31:52;4.50;99.90
52285;DHT22;38238;53.304;6.606;2023-01-29T11:34:21;4.50;99.90
52285;DHT22;38238;53.304;6.606;2023-01-29T11:36:56;4.50;99.90
52285;DHT22;38238;53.304;6.606;2023-01-29T11:39:23;4.50;99.90
52285;DHT22;38238;53.304;6.606;2023-01-29T11:44:18;4.60;99.90
52285;DHT22;38238;53.304;6.606;2023-01-29T11:46:44;4.60;99.90
52285;DHT22;38238;53.304;6.606;2023-01-29T11:49:15;4.60;99.90
52285;DHT22;38238;53.304;6.606;2023-01-29T11:51:49;2.40;99.90
52285;DHT22;38238;53.304;6.606;2023-01-29T11:54:15;4.60;99.90
52285;DHT22;38238;53.304;6.606;2023-01-29T11:56:44;5.00;99.90
52285;DHT22;38238;53.304;6.606;2023-01-29T12:01:55;4.80;99.90
52285;DHT22;38238;53.304;6.606;2023-01-29T12:04:28;4.70;99.90
52285;DHT22;38238;53.304;6.606;2023-01-29T12:06:54;4.80;99.90
52285;DHT22;38238;53.304;6.606;2023-01-29T12:09:21;4.80;99.90
52285;DHT22;38238;53.304;6.606;2023-01-29T12:11:47;4.80;99.90
52285;DHT22;38238;53.304;6.606;2023-01-29T12:14:22;4.80;99.90
52285;DHT22;38238;53.304;6.606;2023-01-29T12:16:52;4.70;99.90
52285;DHT22;38238;53.304;6.606;2023-01-29T12:19:31;4.80;99.90
52285;DHT22;38238;53.304;6.606;2023-01-29T12:22:03;4.80;99.90
52285;DHT22;38238;53.304;6.606;2023-01-29T12:24:34;4.70;99.90
52285;DHT22;38238;53.304;6.606;2023-01-29T12:29:59;4.80;99.90
52285;DHT22;38238;53.304;6.606;2023-01-29T12:32:38;4.80;99.90
52285;DHT22;38238;53.304;6.606;2023-01-29T12:40:22;4.80;99.90
52285;DHT22;38238;53.304;6.606;2023-01-29T12:42:50;4.90;99.90
52285;DHT22;38238;53.304;6.606;2023-01-29T12:45:18;4.90;99.90
52285;DHT22;38238;53.304;6.606;2023-01-29T12:47:49;4.90;99.90
52285;DHT22;38238;53.304;6.606;2023-01-29T12:50:18;4.90;99.90
52285;DHT22;38238;53.304;6.606;2023-01-29T12:52:58;4.90;99.90
52285;DHT22;38238;53.304;6.606;2023-01-29T12:55:39;5.00;99.90
52285;DHT22;38238;53.304;6.606;2023-01-29T12:58:11;5.00;99.90
52285;DHT22;38238;53.304;6.606;2023-01-29T13:00:39;5.10;99.90
52285;DHT22;38238;53.304;6.606;2023-01-29T13:05:35;5.10;99.90
52285;DHT22;38238;53.304;6.606;2023-01-29T13:08:04;5.20;99.90
52285;DHT22;38238;53.304;6.606;2023-01-29T13:10:34;5.20;99.90
52285;DHT22;38238;53.304;6.606;2023-01-29T13:13:06;5.20;99.90
52285;DHT22;38238;53.304;6.606;2023-01-29T13:15:40;5.10;99.90
52285;DHT22;38238;53.304;6.606;2023-01-29T13:20:53;5.10;99.90
52285;DHT22;38238;53.304;6.606;2023-01-29T13:23:20;5.10;99.90
52285;DHT22;38238;53.304;6.606;2023-01-29T13:25:52;5.10;99.90
52285;DHT22;38238;53.304;6.606;2023-01-29T13:28:20;5.10;99.90
52285;DHT22;38238;53.304;6.606;2023-01-29T13:30:46;5.10;99.90
52285;DHT22;38238;53.304;6.606;2023-01-29T13:33:32;5.10;99.90
52285;DHT22;38238;53.304;6.606;2023-01-29T13:35:57;5.00;99.90
52285;DHT22;38238;53.304;6.606;2023-01-29T13:38:24;5.10;99.90
52285;DHT22;38238;53.304;6.606;2023-01-29T13:40:51;5.10;99.90
52285;DHT22;38238;53.304;6.606;2023-01-29T13:43:19;5.10;99.90
52285;DHT22;38238;53.304;6.606;2023-01-29T13:45:45;5.00;99.90
52285;DHT22;38238;53.304;6.606;2023-01-29T13:48:26;5.00;99.90
52285;DHT22;38238;53.304;6.606;2023-01-29T13:50:52;5.00;99.90
52285;DHT22;38238;53.304;6.606;2023-01-29T13:53:20;5.00;99.90
52285;DHT22;38238;53.304;6.606;2023-01-29T13:55:47;5.00;99.90
52285;DHT22;38238;53.304;6.606;2023-01-29T14:00:57;5.00;99.90
52285;DHT22;38238;53.304;6.606;2023-01-29T14:13:37;4.80;99.90
52285;DHT22;38238;53.304;6.606;2023-01-29T14:18:51;4.80;99.90
52285;DHT22;38238;53.304;6.606;2023-01-29T14:23:43;4.80;99.90
52285;DHT22;38238;53.304;6.606;2023-01-29T14:26:44;4.80;99.90
52285;DHT22;38238;53.304;6.606;2023-01-29T14:33:56;4.70;99.90
52285;DHT22;38238;53.304;6.606;2023-01-29T14:36:24;4.80;99.90
52285;DHT22;38238;53.304;6.606;2023-01-29T14:38:50;4.80;99.90
52285;DHT22;38238;53.304;6.606;2023-01-29T14:43:49;4.70;99.90
52285;DHT22;38238;53.304;6.606;2023-01-29T14:48:58;4.70;99.90
52285;DHT22;38238;53.304;6.606;2023-01-29T14:51:24;4.70;99.90
52285;DHT22;38238;53.304;6.606;2023-01-29T14:54:04;4.70;99.90
52285;DHT22;38238;53.304;6.606;2023-01-29T14:57:11;4.70;99.90
52285;DHT22;38238;53.304;6.606;2023-01-29T14:59:33;4.70;99.90
52285;DHT22;38238;53.304;6.606;2023-01-29T15:02:13;4.70;99.90
52285;DHT22;38238;53.304;6.606;2023-01-29T15:04:41;4.70;99.90
52285;DHT22;38238;53.304;6.606;2023-01-29T15:09:37;4.70;99.90
52285;DHT22;38238;53.304;6.606;2023-01-29T15:14:51;4.70;99.90
52285;DHT22;38238;53.304;6.606;2023-01-29T15:17:26;4.70;99.90
52285;DHT22;38238;53.304;6.606;2023-01-29T15:19:52;6.40;99.90
52285;DHT22;38238;53.304;6.606;2023-01-29T15:22:20;4.70;99.90
52285;DHT22;38238;53.304;6.606;2023-01-29T15:24:47;4.70;99.90
52285;DHT22;38238;53.304;6.606;2023-01-29T15:27:26;4.70;99.90
52285;DHT22;38238;53.304;6.606;2023-01-29T15:30:02;4.60;99.90
52285;DHT22;38238;53.304;6.606;2023-01-29T15:32:35;4.60;99.90
52285;DHT22;38238;53.304;6.606;2023-01-29T15:35:08;4.60;99.90
52285;DHT22;38238;53.304;6.606;2023-01-29T15:37:35;4.60;99.90
52285;DHT22;38238;53.304;6.606;2023-01-29T15:40:00;4.60;99.90
52285;DHT22;38238;53.304;6.606;2023-01-29T15:42:28;4.60;99.90
52285;DHT22;38238;53.304;6.606;2023-01-29T15:44:54;4.60;99.90
52285;DHT22;38238;53.304;6.606;2023-01-29T15:47:21;4.60;99.90
52285;DHT22;38238;53.304;6.606;2023-01-29T15:49:48;4.70;99.90
52285;DHT22;38238;53.304;6.606;2023-01-29T15:52:18;4.60;99.90
52285;DHT22;38238;53.304;6.606;2023-01-29T15:54:45;4.60;99.90
52285;DHT22;38238;53.304;6.606;2023-01-29T15:57:22;4.60;99.90
52285;DHT22;38238;53.304;6.606;2023-01-29T15:59:48;4.60;99.90
52285;DHT22;38238;53.304;6.606;2023-01-29T16:04:54;4.60;99.90
52285;DHT22;38238;53.304;6.606;2023-01-29T16:07:20;4.70;99.90
52285;DHT22;38238;53.304;6.606;2023-01-29T16:09:46;4.70;99.90
52285;DHT22;38238;53.304;6.606;2023-01-29T16:12:12;4.70;99.90
52285;DHT22;38238;53.304;6.606;2023-01-29T16:14:38;4.60;99.90
52285;DHT22;38238;53.304;6.606;2023-01-29T16:17:25;4.70;99.90
52285;DHT22;38238;53.304;6.606;2023-01-29T16:19:54;4.70;99.90
52285;DHT22;38238;53.304;6.606;2023-01-29T16:22:20;4.70;99.90
52285;DHT22;38238;53.304;6.606;2023-01-29T16:24:45;4.70;99.90
52285;DHT22;38238;53.304;6.606;2023-01-29T16:27:12;4.70;99.90
52285;DHT22;38238;53.304;6.606;2023-01-29T16:29:38;4.70;99.90
52285;DHT22;38238;53.304;6.606;2023-01-29T16:32:04;4.70;99.90
52285;DHT22;38238;53.304;6.606;2023-01-29T16:34:37;4.70;99.90
52285;DHT22;38238;53.304;6.606;2023-01-29T16:37:04;4.70;99.90
52285;DHT22;38238;53.304;6.606;2023-01-29T16:39:37;5.70;99.90
52285;DHT22;38238;53.304;6.606;2023-01-29T16:49:47;4.80;99.90
52285;DHT22;38238;53.304;6.606;2023-01-29T16:52:35;5.40;99.90
52285;DHT22;38238;53.304;6.606;2023-01-29T16:55:00;4.80;99.90
52285;DHT22;38238;53.304;6.606;2023-01-29T16:57:28;4.80;99.90
52285;DHT22;38238;53.304;6.606;2023-01-29T16:59:56;4.80;99.90
52285;DHT22;38238;53.304;6.606;2023-01-29T17:04:48;4.90;99.90
52285;DHT22;38238;53.304;6.606;2023-01-29T17:07:15;4.90;99.90
52285;DHT22;38238;53.304;6.606;2023-01-29T17:09:47;4.90;99.90
52285;DHT22;38238;53.304;6.606;2023-01-29T17:12:17;4.90;99.90
52285;DHT22;38238;53.304;6.606;2023-01-29T17:14:54;4.90;99.90
52285;DHT22;38238;53.304;6.606;2023-01-29T17:17:20;4.90;99.90
52285;DHT22;38238;53.304;6.606;2023-01-29T17:19:46;4.90;99.90
52285;DHT22;38238;53.304;6.606;2023-01-29T17:22:12;4.90;99.90
52285;DHT22;38238;53.304;6.606;2023-01-29T17:24:41;4.90;99.90
52285;DHT22;38238;53.304;6.606;2023-01-29T17:27:11;4.90;99.90
52285;DHT22;38238;53.304;6.606;2023-01-29T17:29:37;4.90;99.90
52285;DHT22;38238;53.304;6.606;2023-01-29T17:32:02;4.90;99.90
52285;DHT22;38238;53.304;6.606;2023-01-29T17:34:28;4.90;99.90
52285;DHT22;38238;53.304;6.606;2023-01-29T17:36:54;4.90;99.90
52285;DHT22;38238;53.304;6.606;2023-01-29T17:39:22;4.90;99.90
52285;DHT22;38238;53.304;6.606;2023-01-29T17:41:51;4.90;99.90
52285;DHT22;38238;53.304;6.606;2023-01-29T17:44:18;4.80;99.90
52285;DHT22;38238;53.304;6.606;2023-01-29T17:46:43;4.90;99.90
52285;DHT22;38238;53.304;6.606;2023-01-29T17:49:19;4.80;99.90
52285;DHT22;38238;53.304;6.606;2023-01-29T17:51:45;4.90;99.90
52285;DHT22;38238;53.304;6.606;2023-01-29T17:54:11;4.90;99.90
52285;DHT22;38238;53.304;6.606;2023-01-29T17:56:36;4.80;99.90
52285;DHT22;38238;53.304;6.606;2023-01-29T17:59:07;5.80;99.90
52285;DHT22;38238;53.304;6.606;2023-01-29T18:01:36;4.90;99.90
52285;DHT22;38238;53.304;6.606;2023-01-29T18:04:02;4.90;99.90
52285;DHT22;38238;53.304;6.606;2023-01-29T18:06:28;4.90;99.90
52285;DHT22;38238;53.304;6.606;2023-01-29T18:08:54;4.90;99.90
52285;DHT22;38238;53.304;6.606;2023-01-29T18:11:20;4.90;99.90
52285;DHT22;38238;53.304;6.606;2023-01-29T18:13:46;4.90;99.90
52285;DHT22;38238;53.304;6.606;2023-01-29T18:16:11;4.90;99.90
52285;DHT22;38238;53.304;6.606;2023-01-29T18:18:37;4.90;99.90
52285;DHT22;38238;53.304;6.606;2023-01-29T18:21:04;4.90;99.90